Time;durP1;ratioP1;P1;durP2;ratioP2;P2;SDS_P1;SDS_P2;PMS_P1;PMS_P2;Temp;Humidity;BMP_temperature;BMP_pressure;BME280_temperature;BME280_humidity;BME280_pressure;Samples;Min_cycle;Max_cycle;Signal;HPM_P1;HPM_P2
2022/08/16 00:03:14;;;;;;;24.25;7.30;;;;;;;25.39;56.12;99417.03;10129438;29;20044;-77
2022/08/16 00:08:16;;;;;;;31.38;8.20;;;;;;;25.26;56.81;99413.09;10129550;29;20037;-77
2022/08/16 00:13:17;;;;;;;34.08;7.40;;;;;;;25.34;56.20;99436.13;10128878;29;20131;-76
2022/08/16 00:18:19;;;;;;;35.55;7.82;;;;;;;25.41;56.63;99457.53;10128447;29;20115;-76
2022/08/16 00:23:20;;;;;;;20.70;6.93;;;;;;;25.39;56.16;99432.53;10129423;29;20386;-76
2022/08/16 00:28:21;;;;;;;20.58;5.78;;;;;;;25.39;55.98;99419.75;10128171;29;20049;-77
2022/08/16 00:33:21;;;;;;;23.13;6.28;;;;;;;25.08;56.33;99386.63;10127586;29;20051;-77
2022/08/16 00:38:22;;;;;;;32.67;6.38;;;;;;;25.44;56.34;99452.31;10127905;28;20056;-77
2022/08/16 00:43:32;;;;;;;29.83;6.60;;;;;;;25.42;57.02;99448.25;10131242;29;20102;-78
2022/08/16 00:48:33;;;;;;;21.90;6.43;;;;;;;24.94;56.42;99366.66;10161758;29;20048;-77
2022/08/16 00:53:34;;;;;;;24.50;7.05;;;;;;;24.91;56.51;99367.22;10167192;29;20047;-77
2022/08/16 00:58:39;;;;;;;27.80;6.60;;;;;;;25.25;56.78;99424.25;10181788;29;20052;-77
2022/08/16 01:03:43;;;;;;;44.05;6.82;;;;;;;25.49;57.19;99479.47;10166803;29;20052;-77
2022/08/16 01:08:46;;;;;;;22.58;6.20;;;;;;;25.04;57.20;99396.44;10141899;28;20575;-77
2022/08/16 01:13:49;;;;;;;31.80;6.75;;;;;;;24.91;58.07;99419.63;10126943;29;20047;-75
2022/08/16 01:19:07;;;;;;;26.52;7.00;;;;;;;24.94;59.60;99437.28;10127676;29;20063;-75
2022/08/16 01:24:28;;;;;;;17.90;6.22;;;;;;;25.04;58.93;99456.22;10127637;29;20072;-75
2022/08/16 01:29:55;;;;;;;23.27;6.78;;;;;;;24.98;59.62;99471.75;10126787;29;20494;-76
2022/08/16 01:34:56;;;;;;;20.30;6.15;;;;;;;24.39;59.61;99412.97;10126267;29;20053;-77
2022/08/16 01:39:57;;;;;;;18.95;6.28;;;;;;;24.68;59.73;99475.53;10140738;29;20068;-77
2022/08/16 01:44:58;;;;;;;312.60;24.85;;;;;;;24.52;60.79;99476.69;10134203;29;20055;-77
2022/08/16 01:49:59;;;;;;;48.50;8.63;;;;;;;24.41;60.98;99480.53;10132885;29;20448;-76
2022/08/16 01:55:01;;;;;;;340.50;28.27;;;;;;;24.06;61.66;99434.31;10132803;29;20052;-77
2022/08/16 02:00:06;;;;;;;49.40;9.13;;;;;;;24.30;62.00;99494.16;10133143;29;20045;-76
2022/08/16 02:05:07;;;;;;;31.08;7.70;;;;;;;24.12;62.17;99473.09;10133023;29;20068;-77
2022/08/16 02:10:09;;;;;;;518.50;42.20;;;;;;;23.96;63.15;99457.97;10132621;29;20053;-76
2022/08/16 02:15:12;;;;;;;33.80;7.68;;;;;;;23.38;63.15;99353.50;10132660;29;20202;-76
2022/08/16 02:20:14;;;;;;;33.10;7.20;;;;;;;23.93;63.26;99456.63;10132739;29;20044;-76
2022/08/16 02:25:15;;;;;;;20.63;6.97;;;;;;;23.46;63.59;99376.53;10132622;29;20393;-76
2022/08/16 02:30:20;;;;;;;39.53;7.40;;;;;;;24.08;64.10;99469.31;10133126;29;20040;-75
2022/08/16 02:35:22;;;;;;;33.53;7.60;;;;;;;24.19;63.99;99500.72;10131841;29;20045;-74
2022/08/16 02:40:24;;;;;;;27.85;6.80;;;;;;;24.20;64.46;99490.69;10131392;29;20100;-74
2022/08/16 02:45:27;;;;;;;28.17;7.38;;;;;;;24.22;65.04;99496.66;10131308;29;20052;-74
2022/08/16 02:50:28;;;;;;;21.95;7.03;;;;;;;23.86;64.78;99426.28;10131334;29;20075;-75
2022/08/16 02:55:29;;;;;;;25.67;7.10;;;;;;;24.26;64.36;99460.56;10131446;29;20044;-74
2022/08/16 03:00:31;;;;;;;241.82;21.00;;;;;;;24.80;64.99;99511.28;10130793;29;20052;-74
2022/08/16 03:05:32;;;;;;;37.83;7.60;;;;;;;25.01;63.63;99487.50;10129973;29;20143;-74
2022/08/16 03:10:34;;;;;;;46.10;8.25;;;;;;;25.34;62.98;99493.22;10155291;29;20048;-75
2022/08/16 03:15:35;;;;;;;20.83;5.82;;;;;;;25.81;62.33;99507.13;10168784;29;20036;-75
2022/08/16 03:20:36;;;;;;;74.85;9.57;;;;;;;25.61;61.77;99423.88;10169940;29;20507;-75
2022/08/16 03:25:37;;;;;;;24.35;6.50;;;;;;;26.36;61.00;99494.78;10169034;29;20131;-75
2022/08/16 03:30:38;;;;;;;18.83;5.93;;;;;;;26.73;59.70;99459.69;10169405;29;20060;-74
2022/08/16 03:35:40;;;;;;;27.17;5.70;;;;;;;27.49;58.78;99509.41;10168933;29;20127;-78
2022/08/16 03:40:41;;;;;;;47.58;6.47;;;;;;;28.25;57.32;99479.00;10169856;29;20068;-77
2022/08/16 03:45:42;;;;;;;34.08;5.38;;;;;;;29.06;54.34;99474.41;10169497;28;20567;-77
2022/08/16 03:50:42;;;;;;;30.52;5.78;;;;;;;29.97;52.57;99488.69;10141824;29;20127;-79
2022/08/16 03:55:43;;;;;;;17.45;4.40;;;;;;;30.23;51.13;99478.63;10145501;28;20127;-75
2022/08/16 04:00:45;;;;;;;25.50;5.38;;;;;;;30.76;49.93;99486.91;10126560;28;20131;-81
2022/08/16 04:05:49;;;;;;;11.27;4.40;;;;;;;30.83;49.70;99479.81;10127816;29;20460;-81
2022/08/16 04:10:52;;;;;;;23.35;6.15;;;;;;;31.18;48.73;99457.81;10127275;29;20045;-79
2022/08/16 04:15:52;;;;;;;9.57;4.63;;;;;;;31.44;47.38;99418.50;10127065;29;20076;-78
2022/08/16 04:20:54;;;;;;;12.90;5.18;;;;;;;32.08;46.30;99472.50;10125498;29;20127;-77
2022/08/16 04:25:54;;;;;;;9.45;5.25;;;;;;;31.60;46.60;99425.06;10116493;28;20736;-71
2022/08/16 04:30:55;;;;;;;20.63;6.15;;;;;;;31.96;45.57;99454.78;10125573;29;20404;-70
2022/08/16 04:35:57;;;;;;;27.10;6.15;;;;;;;32.21;45.79;99463.97;10128298;29;20053;-75
2022/08/16 04:40:58;;;;;;;9.50;5.60;;;;;;;32.12;45.66;99485.22;10126942;29;20179;-70
2022/08/16 04:45:59;;;;;;;26.02;6.70;;;;;;;32.38;45.18;99498.00;10128605;28;20076;-73
2022/08/16 04:51:00;;;;;;;22.30;5.90;;;;;;;32.47;45.12;99482.25;10127543;28;20655;-72
2022/08/16 04:56:01;;;;;;;10.38;5.43;;;;;;;32.33;45.43;99500.94;10128149;29;20053;-76
2022/08/16 05:01:03;;;;;;;42.10;7.25;;;;;;;32.29;45.71;99492.53;10126954;29;20053;-75
2022/08/16 05:06:04;;;;;;;10.95;4.88;;;;;;;31.96;46.31;99497.94;10127818;29;20036;-76
2022/08/16 05:11:07;;;;;;;12.77;5.35;;;;;;;31.65;46.95;99488.03;10127870;29;20045;-75
2022/08/16 05:16:26;;;;;;;18.50;5.68;;;;;;;30.82;48.40;99382.25;10129001;29;20080;-73
2022/08/16 05:21:27;;;;;;;7.50;5.07;;;;;;;31.23;48.18;99492.47;10133799;29;20131;-75
2022/08/16 05:26:30;;;;;;;12.77;5.97;;;;;;;30.84;48.20;99432.09;10134333;29;20071;-72
2022/08/16 05:31:32;;;;;;;16.33;6.07;;;;;;;31.28;48.65;99490.38;10134248;29;20041;-76
2022/08/16 05:36:33;;;;;;;20.20;6.33;;;;;;;31.57;47.86;99464.16;10133913;29;20056;-74
2022/08/16 05:41:36;;;;;;;12.90;5.28;;;;;;;31.95;47.64;99480.66;10133746;29;20072;-76
2022/08/16 05:46:36;;;;;;;17.20;6.88;;;;;;;31.87;47.46;99481.47;10133128;29;20048;-75
2022/08/16 05:51:37;;;;;;;14.48;5.90;;;;;;;31.85;46.56;99470.00;10133507;29;20054;-75
2022/08/16 05:56:40;;;;;;;17.38;6.10;;;;;;;32.10;46.50;99471.03;10133230;29;20045;-75
2022/08/16 06:01:42;;;;;;;;;;;;;;;32.61;45.04;99473.72;10133432;28;20044;-73
2022/08/16 06:06:44;;;;;;;21.25;6.40;;;;;;;32.16;46.08;99480.69;10133106;29;19965;-75
2022/08/16 06:11:45;;;;;;;28.03;7.30;;;;;;;32.12;45.93;99471.47;10133067;29;20044;-74
2022/08/16 06:16:45;;;;;;;28.60;6.65;;;;;;;32.27;46.19;99490.13;10133190;28;20472;-76
2022/08/16 06:21:46;;;;;;;44.17;9.00;;;;;;;32.54;45.92;99476.22;10132363;29;20107;-71
2022/08/16 06:26:47;;;;;;;14.38;6.60;;;;;;;32.32;44.84;99482.84;10131970;29;20049;-77
2022/08/16 06:31:48;;;;;;;11.77;6.25;;;;;;;32.20;44.81;99421.16;10131287;29;20072;-77
2022/08/16 06:36:49;;;;;;;16.25;7.47;;;;;;;32.96;44.44;99479.72;10131865;29;20060;-74
2022/08/16 06:41:50;;;;;;;15.95;7.00;;;;;;;32.42;43.81;99387.00;10132341;29;20047;-75
2022/08/16 06:46:51;;;;;;;34.50;7.25;;;;;;;33.30;43.54;99475.84;10131303;28;20055;-73
2022/08/16 06:51:52;;;;;;;54.63;8.15;;;;;;;33.42;43.39;99477.81;10131150;29;20175;-70
2022/08/16 06:56:52;;;;;;;12.43;6.45;;;;;;;33.66;42.55;99479.00;10130931;29;20533;-73
2022/08/16 07:01:53;;;;;;;11.52;6.22;;;;;;;33.52;42.33;99455.34;10131400;28;20049;-75
2022/08/16 07:06:54;;;;;;;23.38;7.28;;;;;;;33.24;42.19;99391.88;10131396;29;20044;-75
2022/08/16 07:11:55;;;;;;;29.75;7.05;;;;;;;33.77;41.85;99452.59;10131089;29;20501;-74
2022/08/16 07:16:57;;;;;;;42.85;8.43;;;;;;;34.08;41.55;99469.38;10130819;29;20127;-73
2022/08/16 07:22:01;;;;;;;15.82;6.45;;;;;;;34.27;41.29;99454.16;10131463;29;20047;-71
2022/08/16 07:27:03;;;;;;;51.88;9.73;;;;;;;34.42;41.21;99453.44;10130291;29;20049;-73
2022/08/16 07:32:04;;;;;;;17.17;6.82;;;;;;;34.45;40.36;99433.44;10129980;29;20076;-71
2022/08/16 07:37:08;;;;;;;22.20;7.40;;;;;;;34.38;39.66;99424.97;10130481;29;20559;-73
2022/08/16 07:42:09;;;;;;;14.05;6.63;;;;;;;34.38;39.12;99422.22;10129563;29;20067;-75
2022/08/16 07:47:10;;;;;;;16.73;6.72;;;;;;;34.25;39.13;99379.28;10129530;29;20449;-75
2022/08/16 07:52:11;;;;;;;10.98;5.88;;;;;;;34.40;38.06;99361.97;10129844;29;20048;-74
2022/08/16 07:57:12;;;;;;;19.27;6.57;;;;;;;34.60;37.63;99370.44;10129735;29;20106;-73
2022/08/16 08:02:13;;;;;;;13.20;6.45;;;;;;;34.81;37.90;99384.78;10129700;29;20497;-71
2022/08/16 08:07:13;;;;;;;12.75;6.30;;;;;;;34.72;37.31;99407.03;10130056;28;20056;-76
2022/08/16 08:12:14;;;;;;;18.15;6.00;;;;;;;34.51;38.05;99348.50;10129719;29;20041;-75
2022/08/16 08:17:16;;;;;;;13.85;6.15;;;;;;;35.33;37.37;99396.78;10129096;29;20040;-73
2022/08/16 08:22:17;;;;;;;14.23;6.07;;;;;;;35.32;36.59;99349.03;10128554;29;20040;-75
2022/08/16 08:27:18;;;;;;;11.57;6.25;;;;;;;35.84;35.95;99410.63;10128428;29;20055;-75
2022/08/16 08:32:20;;;;;;;20.80;6.57;;;;;;;35.88;35.67;99415.09;10128494;29;20123;-76
2022/08/16 08:37:21;;;;;;;30.05;6.88;;;;;;;35.85;35.87;99399.22;10128706;28;20065;-72
2022/08/16 08:42:22;;;;;;;11.93;5.77;;;;;;;35.75;35.57;99344.53;10128552;29;20041;-74
2022/08/16 08:47:23;;;;;;;12.18;6.05;;;;;;;36.13;34.56;99391.94;10127842;29;20049;-76
2022/08/16 08:52:24;;;;;;;18.88;6.25;;;;;;;36.24;34.27;99398.50;10127241;29;20041;-76
2022/08/16 08:57:25;;;;;;;10.13;6.30;;;;;;;36.09;33.96;99336.59;10128556;29;20411;-72
2022/08/16 09:02:26;;;;;;;12.32;6.65;;;;;;;36.36;33.67;99389.25;10128691;29;20045;-75
2022/08/16 09:07:27;;;;;;;12.93;6.68;;;;;;;36.51;34.49;99380.06;10128534;28;20135;-75
2022/08/16 09:12:27;;;;;;;25.52;6.80;;;;;;;36.71;34.34;99384.44;10127857;29;20131;-75
2022/08/16 09:17:28;;;;;;;8.65;5.95;;;;;;;36.63;33.53;99379.94;10127855;28;20051;-75
2022/08/16 09:22:29;;;;;;;17.48;6.55;;;;;;;36.64;33.45;99359.38;10126994;29;20041;-74
2022/08/16 09:27:30;;;;;;;12.73;6.47;;;;;;;36.86;33.42;99368.09;10126868;29;20041;-76
2022/08/16 09:32:31;;;;;;;16.48;6.15;;;;;;;37.06;32.91;99364.09;10127408;29;20052;-76
2022/08/16 09:37:32;;;;;;;16.70;6.50;;;;;;;37.01;32.27;99358.91;10126667;29;20419;-77
2022/08/16 09:42:33;;;;;;;13.70;6.13;;;;;;;36.79;31.86;99299.56;10127729;29;20515;-76
2022/08/16 09:47:39;;;;;;;12.67;5.80;;;;;;;36.64;31.51;99286.66;10127062;29;20040;-76
2022/08/16 09:52:40;;;;;;;13.38;5.75;;;;;;;37.09;31.34;99327.38;10117349;28;20057;-77
2022/08/16 09:57:41;;;;;;;10.83;6.37;;;;;;;37.22;31.97;99334.31;10118746;29;20527;-78
2022/08/16 10:02:43;;;;;;;13.40;6.33;;;;;;;37.42;31.37;99325.91;10148306;29;20047;-78
2022/08/16 10:07:45;;;;;;;;;;;;;;;37.71;31.16;99346.53;10138654;29;20135;-77
2022/08/16 10:18:11;;;;;;;20.90;6.60;;;;;;;37.73;30.43;99340.63;10127506;28;20043;-77
2022/08/16 10:23:14;;;;;;;11.68;5.60;;;;;;;37.99;30.07;99345.34;10128476;28;20546;-77
2022/08/16 10:28:15;;;;;;;10.63;5.72;;;;;;;37.90;29.99;99321.47;10127720;28;20076;-77
2022/08/16 10:33:16;;;;;;;8.90;5.63;;;;;;;37.82;30.20;99305.13;10127948;28;20079;-78
2022/08/16 10:38:17;;;;;;;12.27;6.40;;;;;;;37.94;29.98;99316.00;10130775;28;20399;-78
2022/08/16 10:43:18;;;;;;;20.33;6.33;;;;;;;37.61;29.39;99255.75;10126645;29;20059;-79
2022/08/16 10:48:19;;;;;;;35.13;6.80;;;;;;;38.40;29.99;99337.13;10127364;29;20123;-77
2022/08/16 10:53:20;;;;;;;12.63;5.70;;;;;;;38.62;28.82;99341.72;10126756;29;20044;-77
2022/08/16 10:58:21;;;;;;;12.63;5.70;;;;;;;37.72;28.38;99203.22;10126145;28;20308;-78
2022/08/16 11:03:21;;;;;;;12.97;5.77;;;;;;;38.52;28.34;99334.88;10126706;29;20535;-77
2022/08/16 11:08:22;;;;;;;19.10;5.87;;;;;;;38.13;28.45;99268.66;10126438;28;20649;-77
2022/08/16 11:13:25;;;;;;;14.13;6.37;;;;;;;38.55;28.88;99336.88;10129512;29;20118;-78
2022/08/16 11:18:30;;;;;;;15.65;6.22;;;;;;;38.12;29.01;99258.75;10130860;29;20048;-77
2022/08/16 11:23:31;;;;;;;11.77;5.88;;;;;;;38.42;28.45;99318.13;10130815;29;20047;-79
2022/08/16 11:28:34;;;;;;;13.83;6.20;;;;;;;38.42;28.82;99307.84;10130470;29;20485;-78
2022/08/16 11:33:35;;;;;;;15.27;6.47;;;;;;;38.38;28.69;99257.03;10130121;29;20044;-76
2022/08/16 11:38:36;;;;;;;13.77;6.07;;;;;;;38.82;28.73;99312.56;10131175;29;20053;-78
2022/08/16 11:43:40;;;;;;;25.97;6.90;;;;;;;38.64;28.83;99292.19;10167020;29;20048;-79
2022/08/16 11:48:41;;;;;;;17.83;6.28;;;;;;;38.73;28.82;99300.19;10158390;29;20052;-77
2022/08/16 11:53:42;;;;;;;16.93;6.80;;;;;;;38.76;28.83;99294.66;10168317;29;20036;-77
2022/08/16 11:58:43;;;;;;;10.23;5.80;;;;;;;38.21;28.54;99221.59;10167900;28;20276;-77
2022/08/16 12:03:44;;;;;;;12.40;6.20;;;;;;;38.76;28.23;99291.09;10144629;28;20040;-79
2022/08/16 12:08:46;;;;;;;17.73;6.80;;;;;;;38.57;28.73;99284.59;10157574;28;20059;-77
2022/08/16 12:13:47;;;;;;;34.75;7.22;;;;;;;38.51;28.79;99266.69;10158606;29;20091;-79
2022/08/16 12:18:48;;;;;;;13.57;6.20;;;;;;;37.81;28.82;99134.44;10129064;28;20044;-77
2022/08/16 12:23:49;;;;;;;13.13;6.63;;;;;;;38.80;28.44;99284.41;10144085;29;20040;-78
2022/08/16 12:28:52;;;;;;;9.97;6.13;;;;;;;38.24;28.53;99190.34;10127780;29;20058;-77
2022/08/16 12:33:53;;;;;;;13.40;5.97;;;;;;;38.90;29.04;99276.56;10138912;28;20055;-78
2022/08/16 12:38:54;;;;;;;15.77;6.50;;;;;;;38.79;29.10;99262.56;10124945;29;20118;-74
2022/08/16 12:43:55;;;;;;;12.63;5.70;;;;;;;38.55;29.84;99250.88;10145374;28;20041;-79
2022/08/16 12:48:58;;;;;;;13.00;5.67;;;;;;;38.60;28.84;99219.22;10128045;29;20036;-75
2022/08/16 12:54:03;;;;;;;11.70;6.22;;;;;;;38.88;28.44;99268.63;10125009;29;20461;-78
2022/08/16 12:59:10;;;;;;;24.42;7.78;;;;;;;38.20;30.18;99175.63;10140362;29;20493;-76
2022/08/16 13:04:11;;;;;;;12.18;6.07;;;;;;;38.11;28.83;99181.47;10124065;29;20044;-76
2022/08/16 13:09:23;;;;;;;19.23;7.00;;;;;;;38.32;28.69;99203.06;10122472;28;20048;-75
2022/08/16 13:14:32;;;;;;;12.55;5.57;;;;;;;37.82;28.39;99147.13;10107881;28;20520;-76
2022/08/16 13:19:34;;;;;;;18.27;5.75;;;;;;;37.58;28.77;99110.47;10126561;29;20139;-76
2022/08/16 13:24:35;;;;;;;12.82;5.35;;;;;;;38.27;28.72;99220.09;10139600;29;20037;-77
2022/08/16 13:29:36;;;;;;;21.93;6.10;;;;;;;38.40;29.17;99238.06;10120180;29;20049;-76
2022/08/16 13:34:37;;;;;;;15.97;6.00;;;;;;;38.46;29.15;99264.25;10129453;29;20412;-76
2022/08/16 13:39:38;;;;;;;16.00;5.67;;;;;;;37.99;29.17;99173.44;10144720;29;20053;-77
2022/08/16 13:44:39;;;;;;;12.70;5.60;;;;;;;38.03;28.63;99197.28;10147338;29;20079;-75
2022/08/16 13:49:40;;;;;;;18.53;5.83;;;;;;;38.08;28.61;99224.66;10139541;29;20143;-76
2022/08/16 13:54:41;;;;;;;13.32;5.65;;;;;;;38.33;28.85;99268.47;10146554;29;20061;-74
2022/08/16 13:59:42;;;;;;;19.67;6.53;;;;;;;38.25;28.27;99277.91;10150856;28;20052;-73
2022/08/16 14:04:43;;;;;;;20.95;6.10;;;;;;;38.14;28.42;99275.00;10156452;29;20504;-74
2022/08/16 14:09:44;;;;;;;11.47;5.43;;;;;;;38.03;28.49;99285.19;10145322;29;20052;-75
2022/08/16 14:14:46;;;;;;;11.00;4.85;;;;;;;37.39;28.59;99196.47;10152559;29;20456;-74
2022/08/16 14:19:49;;;;;;;13.93;5.25;;;;;;;37.41;29.35;99221.81;10147436;29;20049;-75
2022/08/16 14:24:52;;;;;;;11.07;5.57;;;;;;;37.76;29.03;99299.09;10131400;29;20103;-75
2022/08/16 14:29:54;;;;;;;16.70;5.93;;;;;;;37.73;29.31;99310.16;10165440;29;20068;-77
2022/08/16 14:34:56;;;;;;;31.35;6.90;;;;;;;37.56;29.97;99303.97;10140382;29;20072;-75
2022/08/16 14:39:57;;;;;;;18.98;6.45;;;;;;;37.56;30.26;99317.81;10141696;29;20417;-75
2022/08/16 14:44:58;;;;;;;31.37;7.53;;;;;;;36.84;30.28;99227.31;10128971;29;20032;-77
2022/08/16 14:49:59;;;;;;;15.37;5.83;;;;;;;36.49;30.53;99206.16;10126671;28;20076;-76
2022/08/16 14:55:00;;;;;;;13.77;6.27;;;;;;;36.97;30.96;99324.78;10126942;29;20056;-75
2022/08/16 15:00:02;;;;;;;19.57;6.13;;;;;;;36.90;30.86;99353.16;10128347;28;20040;-76
2022/08/16 15:05:04;;;;;;;20.30;5.63;;;;;;;36.19;31.27;99272.41;10130160;28;20044;-76
2022/08/16 15:10:06;;;;;;;20.98;6.50;;;;;;;36.30;31.40;99345.28;10127035;28;20130;-76
2022/08/16 15:15:10;;;;;;;10.32;5.55;;;;;;;36.30;31.50;99372.94;10126277;29;20531;-77
2022/08/16 15:20:11;;;;;;;12.48;5.70;;;;;;;35.46;31.94;99259.41;10124075;29;20056;-77
2022/08/16 15:25:17;;;;;;;49.63;9.00;;;;;;;35.86;31.96;99406.34;10126093;28;20079;-71
2022/08/16 15:30:21;;;;;;;49.70;7.78;;;;;;;35.02;33.06;99419.63;10140157;29;20040;-71
2022/08/16 15:35:22;;;;;;;39.63;6.10;;;;;;;34.26;33.87;99413.97;10139602;29;20036;-74
2022/08/16 15:40:23;;;;;;;28.52;6.35;;;;;;;33.82;34.48;99422.06;10139974;28;20110;-72
2022/08/16 15:50:44;;;;;;;21.83;5.68;;;;;;;33.00;35.24;99403.66;10128442;29;20056;-71
2022/08/16 15:55:47;;;;;;;24.92;5.78;;;;;;;33.23;35.46;99491.28;10164429;29;20527;-69
2022/08/16 16:00:50;;;;;;;20.88;6.00;;;;;;;32.82;35.85;99458.03;10144410;29;20048;-77
2022/08/16 16:05:58;;;;;;;19.50;5.82;;;;;;;32.38;36.55;99426.53;10130163;29;20090;-71
2022/08/16 16:11:03;;;;;;;13.65;5.00;;;;;;;32.73;37.21;99513.09;10159526;28;20056;-72
2022/08/16 16:16:05;;;;;;;17.60;5.72;;;;;;;32.61;37.57;99528.72;10167710;29;20067;-71
2022/08/16 16:21:10;;;;;;;15.17;5.57;;;;;;;31.70;37.46;99402.72;10167718;29;20040;-72
2022/08/16 16:26:14;;;;;;;11.98;5.20;;;;;;;32.38;37.91;99553.75;10167489;29;20277;-73
2022/08/16 16:31:17;;;;;;;24.27;5.32;;;;;;;31.15;38.03;99387.13;10167568;29;20055;-75
2022/08/16 16:36:18;;;;;;;;;;;;;;;32.31;37.69;99564.47;10168482;29;20060;-70
2022/08/16 16:41:23;;;;;;;17.33;6.07;;;;;;;32.00;38.96;99573.03;10182820;29;20378;-70
2022/08/16 16:46:32;;;;;;;27.95;5.40;;;;;;;31.71;39.69;99541.63;10166762;29;20063;-72
2022/08/16 16:51:35;;;;;;;13.75;4.97;;;;;;;31.73;39.50;99577.78;10141940;29;20052;-71
2022/08/16 16:56:36;;;;;;;28.73;5.75;;;;;;;31.45;39.99;99538.16;10115342;29;20433;-72
2022/08/16 17:01:43;;;;;;;19.20;5.85;;;;;;;31.57;40.38;99576.72;10105673;29;20052;-70
2022/08/16 17:06:43;;;;;;;14.38;5.70;;;;;;;31.51;40.32;99572.53;10126423;29;20040;-72
2022/08/16 17:11:45;;;;;;;22.23;6.22;;;;;;;31.50;40.90;99599.19;10122451;29;20083;-70
2022/08/16 17:16:46;;;;;;;19.00;6.40;;;;;;;30.86;40.81;99516.75;10129761;29;20046;-71
2022/08/16 17:21:47;;;;;;;16.20;6.25;;;;;;;30.96;41.31;99538.34;10127181;29;20040;-71
2022/08/16 17:26:48;;;;;;;21.73;6.28;;;;;;;31.14;41.28;99607.72;10128232;29;20048;-71
2022/08/16 17:31:49;;;;;;;17.02;5.90;;;;;;;31.22;41.53;99628.88;10122150;28;20045;-70
2022/08/16 17:36:50;;;;;;;17.35;5.90;;;;;;;31.01;42.58;99611.44;10126389;28;20065;-72
2022/08/16 17:41:51;;;;;;;15.30;5.13;;;;;;;30.91;42.39;99607.88;10147855;28;20520;-71
2022/08/16 17:46:51;;;;;;;22.13;5.70;;;;;;;30.92;42.56;99623.22;10132197;29;20048;-70
2022/08/16 17:51:52;;;;;;;17.17;5.88;;;;;;;30.76;43.20;99621.25;10132975;29;20140;-72
2022/08/16 17:56:53;;;;;;;21.45;5.97;;;;;;;30.61;43.33;99603.31;10133999;29;20036;-71
2022/08/16 18:01:54;;;;;;;14.05;6.00;;;;;;;30.51;43.48;99603.59;10133731;29;20037;-71
2022/08/16 18:06:56;;;;;;;20.92;6.50;;;;;;;30.64;43.60;99639.09;10133141;29;20037;-70
2022/08/16 18:11:57;;;;;;;18.53;6.60;;;;;;;30.51;44.34;99628.25;10132510;29;20127;-69
2022/08/16 18:16:58;;;;;;;18.23;7.00;;;;;;;29.78;44.74;99535.50;10132284;29;20131;-69
2022/08/16 18:22:17;;;;;;;21.30;6.93;;;;;;;30.10;45.57;99591.84;10131901;29;20080;-69
2022/08/16 18:27:19;;;;;;;14.00;6.35;;;;;;;30.14;47.03;99606.50;10130796;29;20045;-69
2022/08/16 18:32:20;;;;;;;16.90;7.20;;;;;;;30.00;48.29;99606.63;10132157;29;20132;-70
2022/08/16 18:37:22;;;;;;;18.92;7.75;;;;;;;29.61;50.71;99563.56;10132666;29;20388;-69
2022/08/16 18:42:23;;;;;;;19.50;8.93;;;;;;;29.92;51.79;99626.56;10131163;29;20080;-68
2022/08/16 18:47:24;;;;;;;16.75;8.00;;;;;;;29.55;53.06;99582.03;10131404;29;20076;-69
2022/08/16 18:52:25;;;;;;;14.25;8.27;;;;;;;29.78;53.74;99628.56;10131349;28;20518;-69
2022/08/16 18:57:26;;;;;;;18.85;9.25;;;;;;;29.46;54.69;99613.19;10131853;29;20071;-69
2022/08/16 19:02:27;;;;;;;19.63;9.13;;;;;;;29.13;55.36;99551.34;10131106;29;20123;-69
2022/08/16 19:07:27;;;;;;;24.98;9.05;;;;;;;29.60;55.76;99645.97;10130865;29;20044;-69
2022/08/16 19:12:29;;;;;;;14.77;9.07;;;;;;;29.51;56.42;99644.00;10130675;29;20089;-69
2022/08/16 19:17:30;;;;;;;15.90;8.75;;;;;;;29.40;56.52;99639.88;10131290;29;20051;-70
2022/08/16 19:22:32;;;;;;;16.40;9.05;;;;;;;28.52;57.19;99510.94;10130781;28;20528;-68
2022/08/16 19:27:33;;;;;;;15.55;8.93;;;;;;;29.45;56.87;99653.44;10130203;29;20070;-69
2022/08/16 19:32:36;;;;;;;17.58;9.13;;;;;;;28.84;57.61;99581.81;10130579;29;20135;-69
2022/08/16 19:37:37;;;;;;;;;;;;;;;29.50;55.84;99669.75;10130170;29;20068;-69
2022/08/16 19:42:39;;;;;;;15.07;9.07;;;;;;;29.11;58.13;99649.31;10129729;29;19923;-69
2022/08/16 19:47:40;;;;;;;13.17;8.80;;;;;;;28.25;58.82;99507.13;10130638;29;20048;-68
2022/08/16 19:52:41;;;;;;;17.92;9.32;;;;;;;29.11;59.31;99645.78;10130050;29;20071;-68
2022/08/16 19:57:45;;;;;;;13.75;8.95;;;;;;;28.75;59.77;99604.69;10130414;28;20048;-68
2022/08/16 20:02:52;;;;;;;21.40;9.55;;;;;;;28.92;61.40;99670.47;10130229;29;20088;-69
2022/08/16 20:07:55;;;;;;;15.85;10.30;;;;;;;28.65;61.10;99658.47;10130342;29;20454;-69
2022/08/16 20:12:58;;;;;;;;;;;;;;;28.89;59.12;99680.09;10128013;29;20048;-69
2022/08/16 20:17:59;;;;;;;14.85;10.10;;;;;;;28.52;61.18;99644.81;10144044;29;19916;-69
2022/08/16 20:22:59;;;;;;;13.02;9.70;;;;;;;28.43;62.41;99659.19;10129137;29;20040;-69
2022/08/16 20:28:00;;;;;;;14.75;9.98;;;;;;;28.29;63.32;99646.59;10128363;29;20151;-69
2022/08/16 20:33:01;;;;;;;17.35;10.25;;;;;;;28.13;63.82;99633.25;10128833;28;20045;-68
2022/08/16 20:38:03;;;;;;;19.92;10.40;;;;;;;28.37;64.25;99676.75;10128818;29;20068;-68
2022/08/16 20:43:10;;;;;;;19.55;10.50;;;;;;;28.28;65.61;99667.66;10129172;29;20048;-69
2022/08/16 20:48:11;;;;;;;17.90;10.60;;;;;;;28.23;65.22;99675.94;10126979;29;20570;-69
2022/08/16 20:53:12;;;;;;;20.55;10.32;;;;;;;28.27;65.34;99684.31;10127044;29;20068;-69
2022/08/16 20:58:13;;;;;;;14.02;10.00;;;;;;;28.02;65.82;99661.84;10142631;29;20045;-68
2022/08/16 21:03:14;;;;;;;17.63;10.38;;;;;;;28.19;66.01;99683.13;10127602;29;20068;-69
2022/08/16 21:08:15;;;;;;;15.07;9.60;;;;;;;27.61;66.36;99597.06;10127822;29;20049;-69
2022/08/16 21:13:16;;;;;;;17.00;9.35;;;;;;;27.96;66.53;99661.13;10128431;29;20507;-69
2022/08/16 21:18:17;;;;;;;12.60;9.50;;;;;;;27.99;66.66;99662.44;10142346;28;20075;-69
2022/08/16 21:23:18;;;;;;;16.80;9.75;;;;;;;27.99;67.06;99665.97;10127263;29;20120;-68
2022/08/16 21:28:19;;;;;;;15.60;9.63;;;;;;;27.88;66.97;99671.91;10127529;29;20040;-69
2022/08/16 21:33:21;;;;;;;13.88;9.30;;;;;;;27.76;67.41;99655.97;10127537;29;20520;-70
2022/08/16 21:38:22;;;;;;;11.95;9.02;;;;;;;27.61;67.36;99640.69;10127279;29;20472;-69
2022/08/16 21:43:24;;;;;;;18.55;9.77;;;;;;;27.64;67.56;99652.91;10127061;28;20052;-69
2022/08/16 21:48:25;;;;;;;12.75;9.43;;;;;;;27.50;67.79;99647.44;10127605;29;20900;-69
2022/08/16 21:53:27;;;;;;;14.50;8.85;;;;;;;27.38;67.96;99655.25;10127015;29;20048;-69
2022/08/16 21:58:28;;;;;;;10.77;8.65;;;;;;;26.64;68.24;99579.41;10129563;29;20493;-69
2022/08/16 22:03:31;;;;;;;17.75;9.25;;;;;;;26.94;68.58;99638.13;10133867;29;20047;-69
2022/08/16 22:08:33;;;;;;;;;;;;;;;27.19;66.92;99675.16;10132906;29;20052;-69
2022/08/16 22:13:33;;;;;;;18.80;8.52;;;;;;;26.82;68.61;99659.53;10133626;29;19954;-69
2022/08/16 22:18:34;;;;;;;19.00;9.35;;;;;;;26.79;69.02;99651.97;10132802;29;20071;-69
2022/08/16 22:23:35;;;;;;;15.38;8.63;;;;;;;26.74;68.81;99652.00;10132104;28;20051;-69
2022/08/16 22:28:36;;;;;;;12.45;8.18;;;;;;;26.43;68.52;99614.22;10131958;29;20040;-68
2022/08/16 22:33:38;;;;;;;12.85;8.18;;;;;;;26.82;68.39;99686.78;10132591;29;20489;-69
2022/08/16 22:38:38;;;;;;;14.57;8.70;;;;;;;26.73;69.13;99705.69;10131786;29;20061;-69
2022/08/16 22:43:39;;;;;;;10.07;7.97;;;;;;;26.64;69.06;99691.91;10132833;29;20052;-69
2022/08/16 22:48:41;;;;;;;14.90;8.25;;;;;;;26.17;69.28;99611.00;10131903;29;20049;-69
2022/08/16 22:53:41;;;;;;;13.57;8.23;;;;;;;26.63;69.46;99698.47;10131338;29;20044;-69
2022/08/16 22:58:43;;;;;;;13.82;8.15;;;;;;;26.47;69.70;99686.06;10131936;29;20041;-69
2022/08/16 23:03:44;;;;;;;14.68;8.52;;;;;;;26.39;69.76;99698.44;10131274;29;20417;-69
2022/08/16 23:08:45;;;;;;;16.67;8.50;;;;;;;26.13;69.83;99659.75;10130685;29;20054;-69
2022/08/16 23:13:47;;;;;;;14.18;8.50;;;;;;;26.36;70.32;99700.94;10131347;29;20485;-69
2022/08/16 23:18:48;;;;;;;23.77;8.30;;;;;;;25.72;70.00;99622.00;10131057;29;20094;-69
2022/08/16 23:23:50;;;;;;;40.53;10.77;;;;;;;25.71;70.52;99639.44;10131151;29;20087;-69